Time;durP1;ratioP1;P1;durP2;ratioP2;P2;SDS_P1;SDS_P2;PMS_P1;PMS_P2;Temp;Humidity;BMP_temperature;BMP_pressure;BME280_temperature;BME280_humidity;BME280_pressure;Samples;Min_cycle;Max_cycle;Signal;HPM_P1;HPM_P2
2022/06/03 00:01:09;;;;;;;22.80;19.70;;;;;;;;;;5041881;28;20175;-44
2022/06/03 00:03:35;;;;;;;24.30;18.20;;;;;;;;;;5046530;28;20195;-44
2022/06/03 00:06:11;;;;;;;20.40;18.30;;;;;;;;;;5049713;28;20198;-43
2022/06/03 00:08:43;;;;;;;24.63;18.60;;;;;;;;;;5045654;28;20178;-43
2022/06/03 00:11:09;;;;;;;22.13;19.30;;;;;;;;;;5043900;28;20185;-43
2022/06/03 00:14:01;;;;;;;21.93;19.53;;;;;;;;;;5044757;28;20175;-44
2022/06/03 00:16:35;;;;;;;22.53;19.57;;;;;;;;;;5031071;28;20199;-43
2022/06/03 00:19:18;;;;;;;24.03;19.67;;;;;;;;;;5041806;28;20206;-43
2022/06/03 00:21:54;;;;;;;25.73;21.63;;;;;;;;;;5040760;28;20174;-43
2022/06/03 00:24:20;;;;;;;28.63;23.27;;;;;;;;;;5042840;28;20411;-44
2022/06/03 00:27:04;;;;;;;23.87;21.33;;;;;;;;;;5038900;28;20288;-43
2022/06/03 00:29:37;;;;;;;27.53;24.43;;;;;;;;;;5042099;28;20255;-43
2022/06/03 00:32:23;;;;;;;31.60;24.80;;;;;;;;;;5044647;28;20582;-43
2022/06/03 00:34:49;;;;;;;29.07;25.30;;;;;;;;;;5039920;28;20167;-44
2022/06/03 00:37:34;;;;;;;34.97;28.13;;;;;;;;;;5038066;28;20180;-43
2022/06/03 00:40:03;;;;;;;38.40;28.87;;;;;;;;;;5040205;28;20299;-43
2022/06/03 00:42:32;;;;;;;32.50;26.87;;;;;;;;;;5043147;28;20262;-43
2022/06/03 00:45:04;;;;;;;31.73;27.20;;;;;;;;;;5041211;28;20653;-44
2022/06/03 00:47:36;;;;;;;31.00;25.50;;;;;;;;;;5044326;28;20339;-44
2022/06/03 00:50:18;;;;;;;30.53;25.57;;;;;;;;;;5047817;28;20531;-43
2022/06/03 00:52:53;;;;;;;36.90;31.13;;;;;;;;;;5041116;28;20183;-43
2022/06/03 00:55:34;;;;;;;36.40;29.20;;;;;;;;;;5041826;28;20183;-44
2022/06/03 00:58:00;;;;;;;42.60;32.87;;;;;;;;;;5046007;28;20231;-43
2022/06/03 01:00:28;;;;;;;42.60;33.33;;;;;;;;;;5046293;28;20167;-44
2022/06/03 01:03:12;;;;;;;42.10;31.33;;;;;;;;;;5045825;28;20164;-44
2022/06/03 01:05:38;;;;;;;43.43;32.20;;;;;;;;;;5041914;28;20178;-43
2022/06/03 01:08:05;;;;;;;46.07;36.70;;;;;;;;;;5044713;28;20282;-43
2022/06/03 01:10:31;;;;;;;44.77;35.67;;;;;;;;;;5044206;28;20182;-43
2022/06/03 01:13:14;;;;;;;36.80;31.63;;;;;;;;;;5041542;28;20284;-43
2022/06/03 01:15:53;;;;;;;35.63;28.90;;;;;;;;;;5043207;28;20282;-42
2022/06/03 01:18:28;;;;;;;35.27;30.13;;;;;;;;;;5048269;28;20308;-43
2022/06/03 01:21:16;;;;;;;40.33;33.23;;;;;;;;;;5045329;28;20245;-44
2022/06/03 01:24:01;;;;;;;39.53;34.60;;;;;;;;;;5045179;28;20875;-42
2022/06/03 01:26:31;;;;;;;41.00;33.00;;;;;;;;;;5043403;28;20286;-42
2022/06/03 01:28:57;;;;;;;35.77;30.70;;;;;;;;;;5043189;28;20524;-42
2022/06/03 01:31:23;;;;;;;36.70;32.37;;;;;;;;;;5042888;28;21004;-42
2022/06/03 01:33:58;;;;;;;39.57;33.83;;;;;;;;;;5041545;28;20453;-41
2022/06/03 01:36:43;;;;;;;46.10;37.00;;;;;;;;;;5043986;28;20266;-42
2022/06/03 01:39:32;;;;;;;38.47;34.20;;;;;;;;;;5047130;28;20290;-41
2022/06/03 01:42:17;;;;;;;34.80;29.93;;;;;;;;;;5032230;28;20679;-41
2022/06/03 01:45:02;;;;;;;43.87;35.10;;;;;;;;;;5045088;28;20211;-42
2022/06/03 01:47:31;;;;;;;40.23;32.73;;;;;;;;;;5048956;28;20175;-42
2022/06/03 01:50:03;;;;;;;40.03;31.93;;;;;;;;;;5043619;28;20225;-42
2022/06/03 01:52:29;;;;;;;44.73;34.77;;;;;;;;;;5041900;28;20183;-41
2022/06/03 01:55:14;;;;;;;40.53;35.97;;;;;;;;;;5041741;28;20341;-42
2022/06/03 01:57:49;;;;;;;41.50;35.23;;;;;;;;;;5044821;28;20738;-42
2022/06/03 02:00:26;;;;;;;47.43;39.60;;;;;;;;;;5041425;28;21147;-41
2022/06/03 02:03:08;;;;;;;52.73;41.77;;;;;;;;;;5044812;28;20687;-42
2022/06/03 02:05:53;;;;;;;56.33;44.17;;;;;;;;;;5047704;28;20175;-42
2022/06/03 02:08:28;;;;;;;56.80;43.07;;;;;;;;;;5045578;28;20526;-41
2022/06/03 02:11:00;;;;;;;49.33;38.97;;;;;;;;;;5045746;28;20186;-42
2022/06/03 02:13:29;;;;;;;44.43;38.00;;;;;;;;;;5043223;28;20175;-41
2022/06/03 02:16:10;;;;;;;47.83;38.83;;;;;;;;;;5046727;28;20184;-42
2022/06/03 02:18:46;;;;;;;44.20;36.30;;;;;;;;;;5046484;28;20203;-42
2022/06/03 02:21:21;;;;;;;43.97;35.67;;;;;;;;;;5047196;28;20595;-43
2022/06/03 02:23:56;;;;;;;44.40;35.53;;;;;;;;;;5045973;28;20231;-42
2022/06/03 02:26:23;;;;;;;48.90;39.77;;;;;;;;;;5047750;28;20171;-42
2022/06/03 02:32:03;;;;;;;44.00;35.90;;;;;;;;;;5047764;28;20332;-41
2022/06/03 02:34:38;;;;;;;42.30;35.63;;;;;;;;;;5046856;28;20334;-42
2022/06/03 02:37:07;;;;;;;52.77;40.97;;;;;;;;;;5050257;28;20202;-42
2022/06/03 02:39:33;;;;;;;46.10;35.70;;;;;;;;;;5047863;28;20206;-42
2022/06/03 02:42:08;;;;;;;45.27;36.73;;;;;;;;;;5050716;28;20281;-42
2022/06/03 02:44:53;;;;;;;48.30;37.83;;;;;;;;;;5050360;28;20907;-42
2022/06/03 02:47:31;;;;;;;43.37;34.67;;;;;;;;;;5048980;28;20445;-42
2022/06/03 02:50:30;;;;;;;46.53;38.33;;;;;;;;;;5046833;28;20193;-42
2022/06/03 02:53:22;;;;;;;50.40;38.97;;;;;;;;;;5028710;28;20305;-41
2022/06/03 02:55:57;;;;;;;48.63;38.00;;;;;;;;;;5050139;28;20295;-42
2022/06/03 02:58:29;;;;;;;49.93;36.20;;;;;;;;;;5046705;28;21158;-42
2022/06/03 03:00:58;;;;;;;46.90;38.40;;;;;;;;;;5048614;28;20294;-43
2022/06/03 03:03:43;;;;;;;45.30;35.80;;;;;;;;;;5052208;28;20522;-42
2022/06/03 03:06:09;;;;;;;50.30;38.07;;;;;;;;;;5048191;28;20677;-42
2022/06/03 03:08:54;;;;;;;45.33;37.87;;;;;;;;;;5046472;28;20464;-42
2022/06/03 03:11:20;;;;;;;45.77;35.07;;;;;;;;;;5047521;28;21090;-42
2022/06/03 03:13:58;;;;;;;49.27;38.30;;;;;;;;;;5044453;28;20194;-42
2022/06/03 03:16:36;;;;;;;45.97;37.33;;;;;;;;;;5045423;28;20264;-42
2022/06/03 03:19:15;;;;;;;49.17;38.40;;;;;;;;;;5048676;28;20317;-42
2022/06/03 03:21:55;;;;;;;45.30;37.53;;;;;;;;;;5050146;28;20178;-42
2022/06/03 03:24:36;;;;;;;46.03;36.33;;;;;;;;;;5047605;28;20175;-42
2022/06/03 03:27:02;;;;;;;43.53;36.50;;;;;;;;;;5045443;28;20266;-42
2022/06/03 03:29:31;;;;;;;52.70;41.27;;;;;;;;;;5049173;28;20476;-42
2022/06/03 03:32:06;;;;;;;43.97;35.57;;;;;;;;;;5047724;28;20187;-42
2022/06/03 03:34:52;;;;;;;44.77;38.33;;;;;;;;;;5048719;28;20183;-42
2022/06/03 03:37:36;;;;;;;48.17;37.60;;;;;;;;;;5045552;28;20182;-42
2022/06/03 03:40:02;;;;;;;41.47;35.77;;;;;;;;;;5044352;28;20504;-42
2022/06/03 03:42:47;;;;;;;46.37;37.87;;;;;;;;;;5048918;28;20256;-42
2022/06/03 03:45:13;;;;;;;43.30;36.93;;;;;;;;;;5046531;28;20167;-42
2022/06/03 03:47:45;;;;;;;46.63;34.83;;;;;;;;;;5046111;28;20555;-42
2022/06/03 03:50:11;;;;;;;50.43;37.80;;;;;;;;;;5049970;28;20209;-42
2022/06/03 03:52:56;;;;;;;45.40;36.17;;;;;;;;;;5044997;28;20904;-42
2022/06/03 03:55:41;;;;;;;48.67;36.00;;;;;;;;;;5044132;28;20171;-42
2022/06/03 03:58:21;;;;;;;44.03;36.60;;;;;;;;;;5045264;28;20206;-42
2022/06/03 04:00:59;;;;;;;40.47;34.60;;;;;;;;;;5046815;28;20188;-42
2022/06/03 04:03:31;;;;;;;45.37;37.00;;;;;;;;;;5046385;28;20729;-42
2022/06/03 04:05:57;;;;;;;48.50;37.63;;;;;;;;;;5043874;28;20642;-41
2022/06/03 04:08:30;;;;;;;42.83;36.23;;;;;;;;;;5047010;28;20823;-42
2022/06/03 04:10:56;;;;;;;43.03;35.03;;;;;;;;;;5043961;28;20178;-41
2022/06/03 04:13:49;;;;;;;50.13;35.27;;;;;;;;;;5044117;28;20251;-42
2022/06/03 04:16:21;;;;;;;44.40;36.23;;;;;;;;;;5047456;28;20203;-42
2022/06/03 04:18:56;;;;;;;45.33;36.50;;;;;;;;;;5046414;28;20194;-42
2022/06/03 04:21:35;;;;;;;47.67;36.87;;;;;;;;;;5043398;28;21013;-42
2022/06/03 04:24:19;;;;;;;45.33;36.30;;;;;;;;;;5046628;28;20299;-43
2022/06/03 04:26:46;;;;;;;51.70;39.73;;;;;;;;;;5043576;28;20182;-43
2022/06/03 04:29:37;;;;;;;43.87;34.03;;;;;;;;;;5044272;28;20174;-43
2022/06/03 04:32:03;;;;;;;44.47;35.40;;;;;;;;;;5045194;28;20171;-42
2022/06/03 04:34:47;;;;;;;42.57;33.67;;;;;;;;;;5048808;28;20757;-43
2022/06/03 04:37:32;;;;;;;39.13;31.60;;;;;;;;;;5043966;28;20183;-43
2022/06/03 04:40:04;;;;;;;38.10;31.40;;;;;;;;;;5044534;28;20707;-43
2022/06/03 04:42:36;;;;;;;34.13;27.50;;;;;;;;;;5042275;28;20175;-43
2022/06/03 04:45:05;;;;;;;35.90;27.93;;;;;;;;;;5044618;28;20252;-43
2022/06/03 04:47:50;;;;;;;39.20;28.50;;;;;;;;;;5051096;28;20174;-42
2022/06/03 04:50:22;;;;;;;38.90;30.37;;;;;;;;;;5050912;28;20357;-43
2022/06/03 04:53:04;;;;;;;38.73;30.40;;;;;;;;;;5049533;28;20182;-43
2022/06/03 04:55:33;;;;;;;34.80;27.83;;;;;;;;;;5054398;28;20222;-43
2022/06/03 04:58:18;;;;;;;41.13;27.47;;;;;;;;;;5053369;28;20239;-42
2022/06/03 05:00:44;;;;;;;32.30;28.50;;;;;;;;;;5048890;28;20616;-43
2022/06/03 05:03:28;;;;;;;36.47;27.90;;;;;;;;;;5049666;28;20175;-43
2022/06/03 05:06:00;;;;;;;33.83;27.83;;;;;;;;;;5043867;28;20629;-43
2022/06/03 05:08:29;;;;;;;36.30;28.93;;;;;;;;;;5044834;28;20183;-43
2022/06/03 05:11:04;;;;;;;37.00;30.07;;;;;;;;;;5043663;28;20205;-43
2022/06/03 05:13:50;;;;;;;39.33;29.83;;;;;;;;;;5043249;28;20187;-43
2022/06/03 05:16:16;;;;;;;41.23;33.13;;;;;;;;;;5053453;28;20181;-43
2022/06/03 05:18:44;;;;;;;41.50;32.87;;;;;;;;;;5049307;28;20884;-43
2022/06/03 05:21:33;;;;;;;40.80;34.00;;;;;;;;;;5047848;28;20188;-43
2022/06/03 05:24:13;;;;;;;43.40;33.90;;;;;;;;;;5046649;28;21168;-43
2022/06/03 05:26:45;;;;;;;38.30;33.70;;;;;;;;;;5055108;28;20495;-43
2022/06/03 05:29:36;;;;;;;44.47;33.97;;;;;;;;;;5049412;28;20185;-43
2022/06/03 05:32:11;;;;;;;48.20;37.40;;;;;;;;;;5050153;28;20194;-43
2022/06/03 05:34:44;;;;;;;52.23;40.33;;;;;;;;;;5046939;28;20178;-43
2022/06/03 05:37:19;;;;;;;51.23;40.70;;;;;;;;;;5042725;28;20176;-43
2022/06/03 05:40:01;;;;;;;45.17;39.93;;;;;;;;;;5042874;28;20574;-43
2022/06/03 05:42:30;;;;;;;47.23;39.10;;;;;;;;;;5050919;28;20735;-42
2022/06/03 05:44:56;;;;;;;50.43;40.73;;;;;;;;;;5057956;28;20247;-42
2022/06/03 05:47:38;;;;;;;46.33;41.30;;;;;;;;;;5053209;28;20255;-43
2022/06/03 05:50:08;;;;;;;51.63;40.07;;;;;;;;;;5057448;28;20173;-43
2022/06/03 05:52:49;;;;;;;52.83;42.13;;;;;;;;;;5048185;28;20209;-43
2022/06/03 05:55:34;;;;;;;49.80;41.13;;;;;;;;;;5049900;28;20216;-43
2022/06/03 05:58:00;;;;;;;48.90;40.90;;;;;;;;;;5051070;28;20489;-43
2022/06/03 06:00:32;;;;;;;51.60;41.10;;;;;;;;;;5055982;28;20178;-43
2022/06/03 06:02:58;;;;;;;51.30;41.97;;;;;;;;;;5056041;28;20184;-43
2022/06/03 06:05:31;;;;;;;50.80;42.73;;;;;;;;;;5053526;28;20642;-43
2022/06/03 06:08:16;;;;;;;54.70;44.70;;;;;;;;;;5056179;28;20262;-43
2022/06/03 06:11:03;;;;;;;47.73;40.57;;;;;;;;;;5057005;28;20817;-43
2022/06/03 06:13:29;;;;;;;51.33;41.50;;;;;;;;;;5052784;28;20732;-42
2022/06/03 06:16:13;;;;;;;47.90;40.97;;;;;;;;;;5053929;28;20540;-43
2022/06/03 06:18:48;;;;;;;45.67;37.40;;;;;;;;;;5058706;28;20210;-44
2022/06/03 06:21:30;;;;;;;46.20;37.87;;;;;;;;;;5055760;28;20191;-43
2022/06/03 06:24:02;;;;;;;49.73;41.03;;;;;;;;;;5056865;28;20186;-42
2022/06/03 06:26:46;;;;;;;44.33;37.07;;;;;;;;;;5058407;28;20178;-43
2022/06/03 06:29:14;;;;;;;49.73;39.00;;;;;;;;;;5057889;28;20609;-43
2022/06/03 06:32:00;;;;;;;41.73;36.63;;;;;;;;;;5054541;28;20655;-43
2022/06/03 06:34:32;;;;;;;45.20;38.50;;;;;;;;;;5047693;28;20186;-43
2022/06/03 06:37:13;;;;;;;44.50;36.77;;;;;;;;;;5049137;28;20569;-42
2022/06/03 06:39:39;;;;;;;46.90;36.10;;;;;;;;;;5046884;28;20206;-43
2022/06/03 06:42:17;;;;;;;36.67;32.70;;;;;;;;;;5044860;28;20178;-43
2022/06/03 06:44:52;;;;;;;37.10;31.97;;;;;;;;;;5048957;28;20166;-43
2022/06/03 06:47:36;;;;;;;41.60;33.83;;;;;;;;;;5050316;28;20261;-43
2022/06/03 06:50:12;;;;;;;41.47;34.30;;;;;;;;;;5050691;28;20656;-43
2022/06/03 06:52:46;;;;;;;41.70;32.27;;;;;;;;;;5050312;28;20166;-43
2022/06/03 06:55:15;;;;;;;39.43;32.77;;;;;;;;;;5051011;28;21617;-43
2022/06/03 06:57:48;;;;;;;40.13;33.90;;;;;;;;;;5046195;28;20226;-43
2022/06/03 07:00:24;;;;;;;41.83;32.87;;;;;;;;;;5052677;28;20265;-43
2022/06/03 07:02:50;;;;;;;39.33;31.27;;;;;;;;;;5050491;28;20178;-43
2022/06/03 07:05:35;;;;;;;37.17;31.93;;;;;;;;;;5047647;28;20175;-43
2022/06/03 07:08:07;;;;;;;39.00;30.90;;;;;;;;;;5050809;28;20231;-43
2022/06/03 07:10:33;;;;;;;38.47;30.57;;;;;;;;;;5050912;28;20246;-44
2022/06/03 07:13:06;;;;;;;31.40;26.80;;;;;;;;;;5048276;28;20175;-43
2022/06/03 07:15:41;;;;;;;41.30;27.60;;;;;;;;;;5049539;28;20432;-43
2022/06/03 07:21:06;;;;;;;41.60;31.70;;;;;;;;;;5051207;28;20191;-42
2022/06/03 07:23:39;;;;;;;39.37;33.13;;;;;;;;;;5048727;28;20702;-43
2022/06/03 07:26:08;;;;;;;51.20;36.53;;;;;;;;;;5051225;28;20543;-43
2022/06/03 07:28:51;;;;;;;60.17;33.67;;;;;;;;;;5054266;28;20627;-43
2022/06/03 07:31:36;;;;;;;45.10;31.07;;;;;;;;;;5051438;28;20192;-44
2022/06/03 07:34:11;;;;;;;45.93;33.97;;;;;;;;;;5052223;28;20285;-44
2022/06/03 07:36:37;;;;;;;38.63;29.33;;;;;;;;;;5052246;28;20630;-43
2022/06/03 07:39:22;;;;;;;41.37;30.37;;;;;;;;;;5051570;28;20389;-43
2022/06/03 07:41:53;;;;;;;40.57;31.20;;;;;;;;;;5048620;28;20707;-43
2022/06/03 07:44:24;;;;;;;36.50;30.33;;;;;;;;;;5051589;28;20210;-43
2022/06/03 07:46:53;;;;;;;41.20;32.27;;;;;;;;;;5050753;28;20187;-44
2022/06/03 07:49:21;;;;;;;43.27;31.87;;;;;;;;;;5052908;28;20667;-43
2022/06/03 07:51:48;;;;;;;41.57;31.93;;;;;;;;;;5052397;28;20630;-44
2022/06/03 07:54:34;;;;;;;42.60;32.23;;;;;;;;;;5049543;28;20451;-44
2022/06/03 07:57:21;;;;;;;43.93;30.87;;;;;;;;;;5048724;28;20179;-43
2022/06/03 07:59:47;;;;;;;43.50;29.77;;;;;;;;;;5049904;28;20388;-44
2022/06/03 08:02:16;;;;;;;47.60;32.33;;;;;;;;;;5050340;28;20785;-43
2022/06/03 08:04:43;;;;;;;39.97;29.70;;;;;;;;;;5046613;28;20175;-43
2022/06/03 08:13:03;;;;;;;37.60;26.93;;;;;;;;;;5048908;28;20201;-43
2022/06/03 08:15:33;;;;;;;35.77;26.60;;;;;;;;;;5048805;28;20195;-43
2022/06/03 08:18:00;;;;;;;37.23;26.30;;;;;;;;;;5050026;28;20186;-44
2022/06/03 08:20:27;;;;;;;33.97;23.50;;;;;;;;;;5049935;28;20178;-43
2022/06/03 08:22:54;;;;;;;30.07;23.67;;;;;;;;;;5049081;28;20211;-42
2022/06/03 08:25:26;;;;;;;31.50;23.03;;;;;;;;;;5053270;28;20769;-44
2022/06/03 08:27:52;;;;;;;34.20;23.67;;;;;;;;;;5049059;28;20623;-43
2022/06/03 08:30:20;;;;;;;33.70;22.97;;;;;;;;;;5047476;28;20413;-43
2022/06/03 08:33:15;;;;;;;31.00;21.37;;;;;;;;;;5052854;28;20301;-44
2022/06/03 08:35:46;;;;;;;33.37;21.57;;;;;;;;;;5044244;28;20710;-44
2022/06/03 08:38:21;;;;;;;29.20;21.60;;;;;;;;;;5047115;28;20183;-43
2022/06/03 08:40:47;;;;;;;29.80;22.40;;;;;;;;;;5048198;28;20179;-43
2022/06/03 08:43:24;;;;;;;29.67;21.73;;;;;;;;;;5048883;28;20469;-43
2022/06/03 08:46:00;;;;;;;38.07;22.67;;;;;;;;;;5050743;28;20214;-43
2022/06/03 08:48:31;;;;;;;27.80;19.70;;;;;;;;;;5047950;28;20179;-43
2022/06/03 08:50:58;;;;;;;26.50;20.43;;;;;;;;;;5049975;28;20484;-43
2022/06/03 08:53:30;;;;;;;29.33;21.93;;;;;;;;;;5050183;28;20180;-43
2022/06/03 08:56:09;;;;;;;26.93;20.30;;;;;;;;;;5048767;28;20182;-44
2022/06/03 08:58:56;;;;;;;33.80;22.43;;;;;;;;;;5051337;28;20291;-43
2022/06/03 09:01:22;;;;;;;30.73;20.73;;;;;;;;;;5049187;28;20179;-43
2022/06/03 09:03:48;;;;;;;31.97;22.77;;;;;;;;;;5047487;28;20364;-43
2022/06/03 09:06:22;;;;;;;31.30;21.47;;;;;;;;;;5048434;28;20183;-43
2022/06/03 09:08:56;;;;;;;35.63;20.77;;;;;;;;;;5052466;28;20201;-43
2022/06/03 09:11:26;;;;;;;32.17;21.00;;;;;;;;;;5045339;28;20256;-43
2022/06/03 09:13:58;;;;;;;26.03;18.10;;;;;;;;;;5049849;28;20735;-44
2022/06/03 09:16:26;;;;;;;28.10;19.10;;;;;;;;;;5050689;28;20175;-43
2022/06/03 09:18:56;;;;;;;24.27;17.83;;;;;;;;;;5049568;28;20992;-44
2022/06/03 09:21:25;;;;;;;26.17;18.57;;;;;;;;;;5046405;28;20505;-43
2022/06/03 09:23:55;;;;;;;26.03;20.23;;;;;;;;;;5052029;28;20488;-43
2022/06/03 09:26:33;;;;;;;26.53;18.20;;;;;;;;;;5049226;28;20699;-43
2022/06/03 09:29:01;;;;;;;23.30;16.87;;;;;;;;;;5046774;28;20176;-44
2022/06/03 09:31:27;;;;;;;30.73;19.00;;;;;;;;;;5048246;28;20595;-43
2022/06/03 09:33:55;;;;;;;27.83;18.13;;;;;;;;;;5051420;28;20195;-43
2022/06/03 09:36:23;;;;;;;25.07;19.33;;;;;;;;;;5047147;28;20190;-43
2022/06/03 09:38:51;;;;;;;23.77;18.40;;;;;;;;;;5047389;28;20210;-43
2022/06/03 09:41:23;;;;;;;23.13;17.27;;;;;;;;;;5048698;28;20181;-43
2022/06/03 09:43:53;;;;;;;22.67;17.17;;;;;;;;;;5047525;28;21181;-42
2022/06/03 09:46:19;;;;;;;24.23;15.93;;;;;;;;;;5050167;28;20248;-43
2022/06/03 09:48:46;;;;;;;25.70;16.97;;;;;;;;;;5048322;28;20179;-43
2022/06/03 09:51:19;;;;;;;19.63;16.00;;;;;;;;;;5048028;28;21015;-43
2022/06/03 09:53:45;;;;;;;22.47;14.80;;;;;;;;;;5047013;28;20213;-42
2022/06/03 09:56:26;;;;;;;20.10;14.20;;;;;;;;;;5045526;28;20727;-43
2022/06/03 09:58:55;;;;;;;19.17;13.03;;;;;;;;;;5049580;28;20690;-44
2022/06/03 10:01:21;;;;;;;22.27;14.13;;;;;;;;;;5049299;28;20650;-43
2022/06/03 10:03:48;;;;;;;21.97;14.03;;;;;;;;;;5048132;28;20692;-43
2022/06/03 10:06:43;;;;;;;25.00;15.83;;;;;;;;;;5045673;28;20244;-42
2022/06/03 10:14:29;;;;;;;24.70;15.87;;;;;;;;;;5050518;28;20322;-43
2022/06/03 10:16:55;;;;;;;19.57;14.63;;;;;;;;;;5044342;28;20172;-43
2022/06/03 10:19:21;;;;;;;22.63;14.77;;;;;;;;;;5045515;28;20199;-43
2022/06/03 10:21:55;;;;;;;24.03;13.90;;;;;;;;;;5047170;28;20599;-42
2022/06/03 10:24:32;;;;;;;21.00;14.10;;;;;;;;;;5051787;28;20836;-43
2022/06/03 10:27:02;;;;;;;23.17;15.67;;;;;;;;;;5048828;28;20198;-43
2022/06/03 10:29:29;;;;;;;22.70;15.37;;;;;;;;;;5050778;28;21298;-43
2022/06/03 10:31:59;;;;;;;23.57;15.27;;;;;;;;;;5048771;28;20535;-43
2022/06/03 10:34:27;;;;;;;22.77;14.57;;;;;;;;;;5051027;28;20393;-43
2022/06/03 10:36:55;;;;;;;23.07;14.70;;;;;;;;;;5055689;28;20444;-43
2022/06/03 10:39:23;;;;;;;22.97;13.67;;;;;;;;;;5052365;28;20539;-43
2022/06/03 10:41:54;;;;;;;22.37;14.30;;;;;;;;;;5050070;28;20712;-43
2022/06/03 10:44:23;;;;;;;21.30;13.20;;;;;;;;;;5051025;28;20674;-42
2022/06/03 10:46:53;;;;;;;17.47;13.63;;;;;;;;;;5051748;28;20752;-41
2022/06/03 10:49:19;;;;;;;17.33;13.23;;;;;;;;;;5050654;28;20175;-43
2022/06/03 11:02:46;;;;;;;18.37;14.20;;;;;;;;;;5051001;28;21023;-43
2022/06/03 11:05:27;;;;;;;17.93;15.03;;;;;;;;;;5050426;28;20178;-43
2022/06/03 11:08:03;;;;;;;24.67;16.53;;;;;;;;;;5049372;28;20599;-43
2022/06/03 11:10:36;;;;;;;24.17;16.33;;;;;;;;;;5047995;28;20171;-43
2022/06/03 11:13:04;;;;;;;21.60;16.57;;;;;;;;;;5052255;28;20441;-43
2022/06/03 11:15:32;;;;;;;24.20;15.87;;;;;;;;;;5048719;28;20196;-43
2022/06/03 11:18:00;;;;;;;21.63;15.47;;;;;;;;;;5046885;28;20647;-43
2022/06/03 11:20:37;;;;;;;23.80;16.80;;;;;;;;;;5047940;28;20507;-43
2022/06/03 11:23:05;;;;;;;21.17;15.50;;;;;;;;;;5048546;28;20691;-42
2022/06/03 11:25:32;;;;;;;21.47;16.70;;;;;;;;;;5048898;28;20264;-43
2022/06/03 11:28:04;;;;;;;22.63;16.13;;;;;;;;;;5047453;28;20298;-43
2022/06/03 11:30:33;;;;;;;21.40;14.93;;;;;;;;;;5051724;28;20178;-43
2022/06/03 11:33:02;;;;;;;20.97;15.93;;;;;;;;;;5050420;28;20275;-43
2022/06/03 11:35:38;;;;;;;24.87;16.97;;;;;;;;;;5046358;28;20192;-43
2022/06/03 11:38:05;;;;;;;25.20;16.67;;;;;;;;;;5051281;28;20228;-43
2022/06/03 11:40:39;;;;;;;21.60;16.17;;;;;;;;;;5060819;28;20249;-43
2022/06/03 11:43:12;;;;;;;21.33;15.93;;;;;;;;;;5048907;28;20878;-43
2022/06/03 11:45:44;;;;;;;23.90;16.40;;;;;;;;;;5052598;28;20174;-43
2022/06/03 11:48:10;;;;;;;17.77;14.10;;;;;;;;;;5049685;28;20414;-43
2022/06/03 11:50:36;;;;;;;22.20;15.33;;;;;;;;;;5046898;28;20186;-43
2022/06/03 11:53:03;;;;;;;22.67;15.83;;;;;;;;;;5051414;28;20563;-42
2022/06/03 11:55:31;;;;;;;24.03;15.23;;;;;;;;;;5050330;28;20524;-43
2022/06/03 11:58:14;;;;;;;22.03;15.70;;;;;;;;;;5047753;28;20240;-43
2022/06/03 12:00:46;;;;;;;23.33;17.20;;;;;;;;;;5050379;28;20628;-43
2022/06/03 12:03:29;;;;;;;27.07;18.37;;;;;;;;;;5050701;28;20183;-43
2022/06/03 12:05:58;;;;;;;20.90;17.47;;;;;;;;;;5047474;28;20644;-43
2022/06/03 12:08:33;;;;;;;29.07;17.87;;;;;;;;;;5049746;28;20195;-43
2022/06/03 12:11:03;;;;;;;26.07;18.57;;;;;;;;;;5049836;28;20388;-43
2022/06/03 12:13:31;;;;;;;21.40;16.23;;;;;;;;;;5048350;28;20167;-43
2022/06/03 12:15:57;;;;;;;20.27;16.43;;;;;;;;;;5047048;28;20257;-43
2022/06/03 12:18:32;;;;;;;23.47;17.90;;;;;;;;;;5051360;28;20215;-43
2022/06/03 12:21:01;;;;;;;25.70;19.13;;;;;;;;;;5049565;28;20361;-43
2022/06/03 12:23:27;;;;;;;24.63;16.87;;;;;;;;;;5050210;28;20638;-43
2022/06/03 12:25:54;;;;;;;25.57;18.70;;;;;;;;;;5046348;28;20999;-43
2022/06/03 12:28:20;;;;;;;37.97;22.00;;;;;;;;;;5049372;28;20607;-42
2022/06/03 12:30:53;;;;;;;31.23;23.40;;;;;;;;;;5049474;28;20182;-43
2022/06/03 12:33:31;;;;;;;35.20;24.93;;;;;;;;;;5044361;28;21064;-41
2022/06/03 12:35:59;;;;;;;27.80;23.03;;;;;;;;;;5047238;28;20920;-43
2022/06/03 12:38:31;;;;;;;31.40;21.83;;;;;;;;;;5047880;28;20497;-43
2022/06/03 12:40:58;;;;;;;30.97;23.80;;;;;;;;;;5044945;28;21166;-43
2022/06/03 12:43:44;;;;;;;33.20;24.17;;;;;;;;;;5048580;28;20182;-43
2022/06/03 12:46:11;;;;;;;30.50;22.80;;;;;;;;;;5049664;28;20217;-42
2022/06/03 12:48:37;;;;;;;33.33;23.67;;;;;;;;;;5048673;28;20626;-43
2022/06/03 12:51:20;;;;;;;29.93;21.80;;;;;;;;;;5047889;28;20193;-43
2022/06/03 12:53:48;;;;;;;24.17;20.57;;;;;;;;;;5051112;28;20289;-43
2022/06/03 12:56:40;;;;;;;26.43;20.67;;;;;;;;;;5047108;28;20179;-43
2022/06/03 12:59:11;;;;;;;32.10;22.80;;;;;;;;;;5043886;28;20202;-43
2022/06/03 13:01:47;;;;;;;32.77;22.83;;;;;;;;;;5048095;28;20615;-43
2022/06/03 13:04:32;;;;;;;29.57;22.00;;;;;;;;;;5048735;28;20571;-42
2022/06/03 13:07:10;;;;;;;26.03;19.90;;;;;;;;;;5049107;28;20443;-43
2022/06/03 13:09:49;;;;;;;24.40;18.80;;;;;;;;;;5047194;28;20701;-43
2022/06/03 13:12:21;;;;;;;22.23;18.23;;;;;;;;;;5043704;28;20742;-43
2022/06/03 13:14:47;;;;;;;27.93;20.53;;;;;;;;;;5048391;28;20221;-43
2022/06/03 13:17:31;;;;;;;24.60;20.53;;;;;;;;;;5048857;28;20407;-43
2022/06/03 13:19:59;;;;;;;24.60;18.67;;;;;;;;;;5050321;28;21116;-44
2022/06/03 13:22:29;;;;;;;24.33;18.70;;;;;;;;;;5047240;28;20183;-43
2022/06/03 13:25:15;;;;;;;24.07;18.00;;;;;;;;;;5046925;28;20172;-43
2022/06/03 13:27:41;;;;;;;25.57;19.57;;;;;;;;;;5043960;28;20216;-43
2022/06/03 13:30:15;;;;;;;27.07;19.83;;;;;;;;;;5048291;28;20183;-43
2022/06/03 13:32:41;;;;;;;24.90;20.73;;;;;;;;;;5066072;28;20536;-43
2022/06/03 13:35:46;;;;;;;22.40;18.80;;;;;;;;;;5048514;28;20181;-43
2022/06/03 13:38:12;;;;;;;28.30;20.53;;;;;;;;;;5011825;28;20211;-43
2022/06/03 13:40:38;;;;;;;25.23;19.57;;;;;;;;;;5017127;28;20406;-43
2022/06/03 13:43:10;;;;;;;24.23;19.00;;;;;;;;;;5028224;28;20688;-44
2022/06/03 13:45:50;;;;;;;26.03;18.67;;;;;;;;;;5047468;28;20175;-43
2022/06/03 13:48:38;;;;;;;29.23;19.70;;;;;;;;;;5049536;28;20453;-43
2022/06/03 13:51:33;;;;;;;24.97;18.80;;;;;;;;;;5046735;28;20175;-44
2022/06/03 13:54:07;;;;;;;22.33;17.10;;;;;;;;;;5037245;28;20196;-43
2022/06/03 13:56:34;;;;;;;23.73;18.60;;;;;;;;;;5051179;28;20630;-43
2022/06/03 13:59:02;;;;;;;25.53;17.77;;;;;;;;;;5050642;28;20210;-43
2022/06/03 14:01:50;;;;;;;26.13;17.77;;;;;;;;;;5048798;28;20603;-43
2022/06/03 14:04:21;;;;;;;23.60;18.27;;;;;;;;;;5053119;28;20870;-43
2022/06/03 14:07:00;;;;;;;27.97;18.97;;;;;;;;;;5051264;28;20408;-43
2022/06/03 14:09:27;;;;;;;20.23;15.90;;;;;;;;;;5051681;28;20591;-43
2022/06/03 14:11:53;;;;;;;27.53;19.50;;;;;;;;;;5047074;28;20410;-43
2022/06/03 14:14:41;;;;;;;29.87;22.83;;;;;;;;;;5054194;28;20280;-43
2022/06/03 14:17:13;;;;;;;28.87;23.27;;;;;;;;;;5048266;28;20180;-43
2022/06/03 14:19:50;;;;;;;35.57;24.03;;;;;;;;;;5048514;28;20198;-43
2022/06/03 14:22:16;;;;;;;34.20;25.37;;;;;;;;;;5050540;28;20175;-43
2022/06/03 14:24:48;;;;;;;34.30;27.00;;;;;;;;;;5050697;28;20171;-43
2022/06/03 14:27:34;;;;;;;37.23;26.80;;;;;;;;;;5051235;28;20213;-43
2022/06/03 14:30:11;;;;;;;32.63;23.57;;;;;;;;;;5051306;28;20859;-43
2022/06/03 14:32:38;;;;;;;34.57;27.37;;;;;;;;;;5048209;28;20745;-43
2022/06/03 14:35:10;;;;;;;31.47;22.33;;;;;;;;;;5040507;28;20591;-43
2022/06/03 14:37:36;;;;;;;33.00;26.23;;;;;;;;;;5048757;28;20192;-43
2022/06/03 14:40:04;;;;;;;36.73;24.70;;;;;;;;;;5048548;28;20321;-43
2022/06/03 14:42:32;;;;;;;28.20;22.53;;;;;;;;;;5045806;28;20167;-43
2022/06/03 14:45:00;;;;;;;35.63;25.33;;;;;;;;;;5046176;28;20186;-43
2022/06/03 14:47:31;;;;;;;33.83;25.00;;;;;;;;;;5051896;28;21369;-43
2022/06/03 14:50:03;;;;;;;25.70;20.40;;;;;;;;;;5047824;28;20179;-43
2022/06/03 14:52:34;;;;;;;31.23;23.70;;;;;;;;;;5047528;28;20167;-43
2022/06/03 14:55:03;;;;;;;32.63;23.23;;;;;;;;;;5050687;28;20184;-43
2022/06/03 14:57:51;;;;;;;34.97;22.83;;;;;;;;;;5045988;28;20171;-43
2022/06/03 15:00:26;;;;;;;33.67;24.90;;;;;;;;;;5044332;28;20456;-42
2022/06/03 15:03:05;;;;;;;32.50;24.57;;;;;;;;;;5051711;28;20872;-43
2022/06/03 15:05:42;;;;;;;30.63;22.97;;;;;;;;;;5046563;28;20243;-43
2022/06/03 15:08:11;;;;;;;34.23;24.87;;;;;;;;;;5049354;28;20170;-43
2022/06/03 15:10:40;;;;;;;28.07;21.67;;;;;;;;;;5046215;28;20689;-43
2022/06/03 15:13:06;;;;;;;30.87;23.77;;;;;;;;;;5043833;28;20175;-43
2022/06/03 15:15:34;;;;;;;32.87;23.47;;;;;;;;;;5049259;28;20421;-41
2022/06/03 15:18:14;;;;;;;32.00;23.77;;;;;;;;;;5046273;28;20526;-43
2022/06/03 15:20:40;;;;;;;27.37;21.47;;;;;;;;;;5046707;28;20209;-43
2022/06/03 15:23:07;;;;;;;30.40;22.40;;;;;;;;;;5043962;28;20180;-43